Wakpala, South Dakota
Current Conditions -  °F | °C
As of 5:52 AM on Thursday 30 Oct 2014 (Local Time) from KMBG Reporting Station
Clear Clear  
Wind Chill: 32°   Ceiling: Unl
Heat Index: 41°   Visibility: 10mi
Dew Point: 36°   Wind: 18mph
Humidity: 82%   Direction: 320°NW
Pressure: 30.1"   Gusts: NA
Location:  45.66°N, 100.54°W
Report Text: KMBG 301152Z AUTO 32016KT 10SM CLR 05/02 A3010 RMK AO2 SLP202 T00500022 10061 20044 53026
Loading
Personal Weather Stations






























Interactive Weather Map
Tropical Storm Tracking
New forecast layout! Learn more

10-Day Weather Forecast

Advertisements
Track Severe Weather on mobile